Time;durP1;ratioP1;P1;durP2;ratioP2;P2;SDS_P1;SDS_P2;PMS_P1;PMS_P2;Temp;Humidity;BMP_temperature;BMP_pressure;BME280_temperature;BME280_humidity;BME280_pressure;Samples;Min_cycle;Max_cycle;Signal;HPM_P1;HPM_P2
2021/07/14 00:00:46;;;;;;;10.23;3.52;;;;;;;20.80;72.29;100119.16;1852034;77;21169;-80
2021/07/14 00:03:53;;;;;;;8.10;3.27;;;;;;;20.80;72.62;100121.93;1852168;77;21275;-81
2021/07/14 00:07:01;;;;;;;9.78;2.90;;;;;;;20.77;72.63;100121.86;1851565;77;21292;-80
2021/07/14 00:10:07;;;;;;;8.50;3.30;;;;;;;20.76;72.85;100116.56;1850414;76;21153;-81
2021/07/14 00:13:32;;;;;;;9.48;3.37;;;;;;;20.73;73.17;100112.88;1850459;77;21299;-80
2021/07/14 00:23:22;;;;;;;15.50;3.58;;;;;;;20.55;72.91;100116.69;1850384;76;21189;-81
2021/07/14 00:26:27;;;;;;;9.13;3.55;;;;;;;20.51;73.88;100117.71;1852940;77;21346;-81
2021/07/14 00:29:35;;;;;;;11.18;3.55;;;;;;;20.42;74.46;100124.20;1850548;77;21211;-81
2021/07/14 00:32:39;;;;;;;13.60;3.98;;;;;;;20.34;74.27;100119.56;1851370;77;22466;-81
2021/07/14 00:35:45;;;;;;;18.15;3.75;;;;;;;20.31;74.54;100120.04;1852227;77;21272;-81
2021/07/14 00:38:51;;;;;;;9.73;3.47;;;;;;;20.28;75.14;100120.52;1850522;77;21299;-81
2021/07/14 00:41:55;;;;;;;10.15;3.20;;;;;;;20.26;75.68;100118.00;1852087;77;21815;-81
2021/07/14 00:45:01;;;;;;;16.73;3.65;;;;;;;20.23;76.03;100117.63;1852088;77;21272;-81
2021/07/14 00:48:07;;;;;;;11.90;3.65;;;;;;;20.22;76.37;100120.11;1850454;76;21172;-81
2021/07/14 00:51:13;;;;;;;7.70;3.42;;;;;;;20.22;76.53;100118.73;1853270;77;21665;-81
2021/07/14 00:54:19;;;;;;;10.35;3.35;;;;;;;20.18;76.63;100119.75;1852512;77;21264;-81
2021/07/14 00:57:26;;;;;;;9.78;3.83;;;;;;;20.12;76.89;100127.68;1851835;77;21572;-81
2021/07/14 01:00:32;;;;;;;8.13;3.50;;;;;;;20.06;77.11;100128.66;1852086;77;21204;-81
2021/07/14 01:03:41;;;;;;;13.00;3.80;;;;;;;20.05;77.17;100118.66;1851755;76;21200;-80
2021/07/14 01:07:06;;;;;;;6.92;3.20;;;;;;;20.03;77.39;100120.81;1852380;77;21346;-80
2021/07/14 01:10:29;;;;;;;11.50;3.62;;;;;;;20.02;77.52;100114.96;1852148;77;21787;-80
2021/07/14 01:13:55;;;;;;;8.45;3.83;;;;;;;20.01;77.48;100119.67;1850430;76;21178;-80
2021/07/14 01:17:10;;;;;;;10.58;3.77;;;;;;;20.00;77.64;100124.93;1850481;76;21172;-80
2021/07/14 01:20:27;;;;;;;8.03;3.42;;;;;;;19.96;77.66;100119.56;1852037;77;21794;-80
2021/07/14 01:24:08;;;;;;;11.65;3.40;;;;;;;19.94;77.58;100125.04;1853325;77;21145;-80
2021/07/14 01:27:18;;;;;;;12.13;3.65;;;;;;;19.89;77.76;100122.44;1853198;77;21235;-80
2021/07/14 01:30:24;;;;;;;10.63;3.50;;;;;;;19.87;77.75;100122.40;1852952;77;21145;-80
2021/07/14 01:33:36;;;;;;;7.08;3.40;;;;;;;19.86;77.68;100131.82;1853059;77;21161;-80
2021/07/14 01:36:42;;;;;;;8.18;3.92;;;;;;;19.84;77.64;100133.42;1853168;77;21656;-80
2021/07/14 01:39:49;;;;;;;13.40;4.35;;;;;;;19.79;77.75;100128.30;1853011;77;21752;-80
2021/07/14 01:43:02;;;;;;;7.62;3.98;;;;;;;19.73;77.77;100127.34;1853151;77;21266;-80
2021/07/14 01:46:07;;;;;;;7.70;3.77;;;;;;;19.69;77.63;100125.29;1853213;77;21245;-80
2021/07/14 01:49:20;;;;;;;11.38;4.15;;;;;;;19.61;77.75;100125.09;1852040;77;21822;-80
2021/07/14 01:52:26;;;;;;;8.53;4.12;;;;;;;19.57;77.85;100130.78;1853184;77;21240;-80
2021/07/14 01:55:33;;;;;;;10.85;3.55;;;;;;;19.54;77.56;100126.58;1852333;77;21284;-80
2021/07/14 01:58:38;;;;;;;6.47;3.33;;;;;;;19.52;77.39;100130.11;1851479;77;21235;-80
2021/07/14 02:01:48;;;;;;;12.13;3.85;;;;;;;19.52;77.21;100134.27;1852083;77;21827;-80
2021/07/14 02:04:53;;;;;;;12.00;3.30;;;;;;;19.52;76.87;100135.66;1852060;77;21201;-80
2021/07/14 02:08:00;;;;;;;10.70;4.20;;;;;;;19.55;76.54;100137.97;1851729;76;21133;-80
2021/07/14 02:11:06;;;;;;;12.18;4.00;;;;;;;19.65;76.01;100137.41;1853157;77;21149;-80
2021/07/14 02:14:11;;;;;;;16.40;3.80;;;;;;;19.80;75.55;100142.47;1852632;77;21347;-80
2021/07/14 02:17:23;;;;;;;13.03;3.55;;;;;;;20.04;74.60;100141.41;1850150;77;21161;-80
2021/07/14 02:20:29;;;;;;;15.98;3.95;;;;;;;20.26;73.72;100137.98;1850364;76;21231;-80
2021/07/14 02:23:36;;;;;;;7.42;3.50;;;;;;;20.53;72.69;100144.72;1852064;77;21747;-80
2021/07/14 02:26:42;;;;;;;13.50;3.77;;;;;;;20.86;71.31;100140.39;1853194;77;21775;-81
2021/07/14 02:29:49;;;;;;;9.43;3.67;;;;;;;21.22;69.35;100141.04;1853192;77;21137;-81
2021/07/14 02:33:02;;;;;;;8.58;3.60;;;;;;;21.61;68.05;100143.45;1852456;77;21525;-81
2021/07/14 02:36:10;;;;;;;14.43;3.85;;;;;;;22.00;66.15;100145.72;1850554;76;21161;-81
2021/07/14 02:39:15;;;;;;;11.55;3.50;;;;;;;22.38;64.59;100144.91;1852600;77;21275;-80
2021/07/14 02:42:43;;;;;;;8.05;3.58;;;;;;;22.75;63.40;100133.66;1852647;77;21145;-80
2021/07/14 02:45:55;;;;;;;4.60;2.85;;;;;;;23.03;62.08;100136.80;1776159;81;21302;-81
2021/07/14 02:49:08;;;;;;;7.10;3.52;;;;;;;23.30;61.02;100135.41;1757165;81;21847;-81
2021/07/14 02:52:17;;;;;;;17.42;3.62;;;;;;;23.59;60.31;100133.14;1747508;82;21349;-81
2021/07/14 02:55:29;;;;;;;13.08;3.60;;;;;;;23.94;58.93;100137.62;1758344;81;21757;-81
2021/07/14 02:58:37;;;;;;;13.58;3.58;;;;;;;24.29;57.94;100137.58;1755793;81;21241;-80
2021/07/14 03:01:45;;;;;;;8.35;3.55;;;;;;;24.59;56.76;100136.06;1758401;81;21198;-81
2021/07/14 03:04:54;;;;;;;15.30;3.72;;;;;;;24.86;55.77;100139.53;1756911;81;21189;-81
2021/07/14 03:08:02;;;;;;;10.10;3.90;;;;;;;25.19;54.52;100149.44;1749303;81;21837;-81
2021/07/14 03:10:59;;;;;;;5.10;3.10;;;;;;;25.42;54.13;100150.03;1755978;81;21198;-81
2021/07/14 03:14:05;;;;;;;15.28;4.12;;;;;;;25.44;54.12;100158.98;1757310;81;21150;-81
2021/07/14 03:17:12;;;;;;;16.57;3.72;;;;;;;25.35;54.66;100162.89;1757384;81;21341;-81
2021/07/14 03:20:20;;;;;;;11.53;3.70;;;;;;;25.32;54.71;100166.82;1757012;80;21585;-81
2021/07/14 03:23:26;;;;;;;12.98;3.77;;;;;;;25.25;55.59;100171.27;1757989;81;21757;-81
2021/07/14 03:26:33;;;;;;;12.47;4.22;;;;;;;25.15;56.50;100181.05;1757341;81;21313;-81
2021/07/14 03:29:39;;;;;;;16.40;4.50;;;;;;;25.05;57.45;100177.63;1759273;80;21328;-80
2021/07/14 03:32:47;;;;;;;17.02;3.90;;;;;;;24.96;58.38;100177.88;1757389;81;21179;-81
2021/07/14 03:35:52;;;;;;;6.58;3.50;;;;;;;24.96;58.88;100173.13;1757367;81;21301;-81
2021/07/14 03:38:58;;;;;;;11.93;3.75;;;;;;;25.08;59.27;100177.13;1755052;81;21317;-81
2021/07/14 03:42:05;;;;;;;10.13;3.55;;;;;;;25.24;59.43;100176.03;1750874;82;21841;-80
2021/07/14 03:45:10;;;;;;;16.07;3.90;;;;;;;25.31;59.59;100178.55;1751024;80;21317;-80
2021/07/14 03:48:18;;;;;;;8.28;3.33;;;;;;;25.39;59.77;100182.77;1750924;82;21180;-81
2021/07/14 03:51:23;;;;;;;12.60;3.92;;;;;;;25.39;59.78;100179.41;1733455;82;21191;-80
2021/07/14 03:54:31;;;;;;;14.60;3.87;;;;;;;25.38;60.37;100179.70;1750770;82;21227;-80
2021/07/14 03:57:38;;;;;;;12.75;4.00;;;;;;;25.40;60.78;100185.84;1750877;82;21318;-80
2021/07/14 04:00:45;;;;;;;7.60;4.15;;;;;;;25.46;60.86;100188.96;1749704;82;21302;-80
2021/07/14 04:03:50;;;;;;;10.25;4.30;;;;;;;25.49;60.72;100189.22;1750980;82;21192;-80
2021/07/14 04:07:03;;;;;;;9.18;4.12;;;;;;;25.52;60.82;100190.64;1750965;82;21345;-80
2021/07/14 04:10:08;;;;;;;14.40;3.92;;;;;;;25.55;60.62;100193.42;1750731;82;21302;-80
2021/07/14 04:13:14;;;;;;;9.75;3.70;;;;;;;25.54;60.31;100192.59;1750975;82;21306;-80
2021/07/14 04:16:20;;;;;;;12.13;3.92;;;;;;;25.48;60.20;100190.91;1749422;82;21879;-80
2021/07/14 04:19:25;;;;;;;15.60;4.10;;;;;;;25.37;60.91;100187.83;1749575;82;21555;-81
2021/07/14 04:22:30;;;;;;;11.75;4.72;;;;;;;25.28;61.27;100196.48;1751015;82;21774;-80
2021/07/14 04:25:37;;;;;;;14.35;4.42;;;;;;;25.21;61.12;100204.56;1749528;82;21203;-80
2021/07/14 04:28:43;;;;;;;11.45;4.47;;;;;;;25.13;61.17;100202.33;1750963;82;21302;-80
2021/07/14 04:31:49;;;;;;;15.20;4.33;;;;;;;25.14;61.80;100202.59;1749837;82;21845;-80
2021/07/14 04:34:55;;;;;;;14.23;5.00;;;;;;;25.21;61.59;100198.12;1750745;82;21341;-80
2021/07/14 04:38:00;;;;;;;9.75;4.60;;;;;;;25.26;60.25;100205.69;1751128;82;21223;-80
2021/07/14 04:41:06;;;;;;;16.02;4.03;;;;;;;25.32;59.35;100206.85;1750530;82;21325;-81
2021/07/14 04:44:14;;;;;;;21.20;4.60;;;;;;;25.36;58.31;100205.72;1751029;82;21380;-80
2021/07/14 04:47:20;;;;;;;7.37;3.67;;;;;;;25.43;58.62;100206.30;1763327;81;21283;-80
2021/07/14 04:50:25;;;;;;;9.78;4.25;;;;;;;25.50;58.54;100212.45;1764614;81;21350;-80
2021/07/14 04:53:31;;;;;;;7.70;4.05;;;;;;;25.50;57.97;100211.06;1765005;81;21148;-80
2021/07/14 04:56:36;;;;;;;17.92;4.40;;;;;;;25.49;57.70;100209.38;1794056;80;21288;-81
2021/07/14 04:59:43;;;;;;;10.72;3.85;;;;;;;25.50;57.12;100206.86;1792463;79;21198;-81
2021/07/14 05:02:49;;;;;;;9.80;3.95;;;;;;;25.56;56.28;100214.17;1794015;80;21309;-80
2021/07/14 05:05:54;;;;;;;10.60;3.40;;;;;;;25.68;56.16;100211.92;1792515;80;21233;-80
2021/07/14 05:09:01;;;;;;;12.55;3.55;;;;;;;25.83;54.20;100211.16;1794020;80;21893;-80
2021/07/14 05:12:07;;;;;;;5.87;3.60;;;;;;;25.97;53.37;100214.20;1792906;80;21376;-80
2021/07/14 05:15:13;;;;;;;9.33;3.15;;;;;;;26.12;54.07;100217.02;1732991;82;21500;-80
2021/07/14 05:18:20;;;;;;;10.55;3.52;;;;;;;26.28;50.59;100211.39;1774996;81;21203;-80
2021/07/14 05:21:24;;;;;;;8.50;3.47;;;;;;;26.40;50.89;100213.34;1734349;82;21317;-81
2021/07/14 05:24:29;;;;;;;13.80;3.45;;;;;;;26.55;50.10;100220.34;1776485;81;21255;-80
2021/07/14 05:27:34;;;;;;;6.70;2.62;;;;;;;26.69;49.01;100220.02;1736006;81;21164;-80
2021/07/14 05:30:41;;;;;;;6.50;2.60;;;;;;;26.76;45.98;100215.49;1761936;81;21325;-81
2021/07/14 05:33:47;;;;;;;6.22;2.62;;;;;;;26.83;45.24;100209.59;1762089;81;21243;-81
2021/07/14 05:36:53;;;;;;;7.42;3.05;;;;;;;26.90;45.63;100214.32;1761232;81;21226;-80
2021/07/14 05:39:59;;;;;;;9.15;3.45;;;;;;;26.95;47.39;100212.89;1758850;80;21215;-80
2021/07/14 05:43:04;;;;;;;17.12;3.17;;;;;;;27.10;47.03;100215.69;1750061;80;21271;-80
2021/07/14 05:46:10;;;;;;;10.00;2.92;;;;;;;27.24;46.46;100213.92;1760297;80;21769;-81
2021/07/14 05:49:16;;;;;;;10.38;2.60;;;;;;;27.32;44.85;100208.25;1736024;82;21277;-80
2021/07/14 05:52:22;;;;;;;12.40;2.60;;;;;;;27.42;46.06;100214.36;1718375;82;21333;-80
2021/07/14 05:55:28;;;;;;;10.88;2.40;;;;;;;27.57;44.16;100214.28;1753386;80;21793;-80
2021/07/14 05:58:34;;;;;;;14.73;2.90;;;;;;;27.71;42.80;100216.73;1737197;80;21219;-79
2021/07/14 06:01:40;;;;;;;11.20;2.47;;;;;;;27.78;43.29;100218.38;1731296;82;21730;-80
2021/07/14 06:04:45;;;;;;;10.82;3.05;;;;;;;27.87;41.54;100225.88;1709483;82;21190;-80
2021/07/14 06:07:53;;;;;;;8.20;2.55;;;;;;;27.91;40.94;100224.73;1722606;82;21327;-80
2021/07/14 06:10:59;;;;;;;11.68;2.60;;;;;;;27.95;40.38;100217.39;1808263;79;21293;-80
2021/07/14 06:14:05;;;;;;;5.10;2.35;;;;;;;27.97;40.38;100227.77;1750099;80;21178;-80
2021/07/14 06:17:11;;;;;;;17.57;2.92;;;;;;;27.98;39.48;100227.47;1738540;82;21887;-79
2021/07/14 06:20:18;;;;;;;7.80;2.72;;;;;;;28.06;40.35;100228.81;1735943;82;21290;-80
2021/07/14 06:23:24;;;;;;;10.63;2.52;;;;;;;28.13;40.75;100226.48;1756892;80;21349;-80
2021/07/14 06:26:29;;;;;;;6.85;2.40;;;;;;;28.24;39.88;100219.65;1731342;82;21238;-80
2021/07/14 06:29:35;;;;;;;13.03;2.50;;;;;;;28.32;40.35;100220.96;1734606;81;21389;-79
2021/07/14 06:32:42;;;;;;;11.83;2.60;;;;;;;28.42;41.72;100220.05;1729541;82;21191;-80
2021/07/14 06:35:48;;;;;;;18.07;2.85;;;;;;;28.64;41.81;100221.78;1733643;82;22426;-80
2021/07/14 06:38:54;;;;;;;16.80;2.25;;;;;;;28.64;41.81;100221.78;1799508;79;21328;-80
2021/07/14 06:42:00;;;;;;;8.10;2.25;;;;;;;28.81;41.70;100217.67;1793256;78;21772;-80
2021/07/14 06:45:05;;;;;;;12.68;2.90;;;;;;;28.95;41.87;100215.84;1749107;80;21282;-81
2021/07/14 06:48:12;;;;;;;20.30;3.45;;;;;;;29.01;41.10;100212.64;1761871;79;21269;-81
2021/07/14 06:51:17;;;;;;;7.30;2.17;;;;;;;29.16;42.17;100215.82;1732274;80;21181;-80
2021/07/14 06:54:23;;;;;;;15.83;2.35;;;;;;;29.26;39.13;100219.90;1764875;80;21305;-81
2021/07/14 06:57:28;;;;;;;7.33;1.60;;;;;;;29.30;39.21;100214.50;1749417;81;21315;-81
2021/07/14 07:00:35;;;;;;;8.20;2.50;;;;;;;29.29;37.32;100215.08;1769375;80;21216;-80
2021/07/14 07:03:43;;;;;;;8.98;1.75;;;;;;;29.31;39.43;100224.63;1751985;81;21266;-80
2021/07/14 07:06:48;;;;;;;5.72;1.82;;;;;;;29.34;37.86;100228.83;1772201;79;21270;-80
2021/07/14 07:09:54;;;;;;;6.00;2.10;;;;;;;29.38;37.66;100227.09;1765171;81;21894;-80
2021/07/14 07:13:00;;;;;;;4.90;2.33;;;;;;;29.42;38.61;100228.16;1761019;80;21270;-80
2021/07/14 07:16:01;;;;;;;3.35;1.80;;;;;;;29.42;37.41;100227.58;1763132;80;21229;-80
2021/07/14 07:19:07;;;;;;;7.42;2.05;;;;;;;29.36;37.49;100227.40;1767814;81;21205;-80
2021/07/14 07:22:14;;;;;;;10.48;2.00;;;;;;;29.37;37.88;100232.45;1731977;81;21278;-81
2021/07/14 07:25:21;;;;;;;7.85;1.90;;;;;;;29.40;37.75;100231.26;1751530;80;21309;-81
2021/07/14 07:28:34;;;;;;;6.20;2.50;;;;;;;29.50;37.97;100227.45;1750984;81;21310;-80
2021/07/14 07:31:34;;;;;;;10.63;2.50;;;;;;;29.60;38.80;100231.58;1771844;81;21165;-81
2021/07/14 07:34:39;;;;;;;5.55;2.35;;;;;;;29.65;38.10;100234.90;1750655;81;21329;-81
2021/07/14 07:37:46;;;;;;;9.55;2.08;;;;;;;29.68;39.27;100225.23;1770651;79;21297;-80
2021/07/14 07:40:54;;;;;;;13.38;2.50;;;;;;;29.79;39.27;100231.00;1772787;80;21223;-81
2021/07/14 07:44:01;;;;;;;6.28;1.85;;;;;;;29.91;38.93;100222.05;1762382;81;21262;-81
2021/07/14 07:47:18;;;;;;;;;;;;;;;;;;;;;
2021/07/14 07:50:19;;;;;;;9.23;1.80;;;;;;;30.04;36.39;100221.27;1714852;82;21898;-81
2021/07/14 07:53:27;;;;;;;5.08;1.85;;;;;;;30.04;35.33;100226.91;1746270;81;21307;-80
2021/07/14 07:56:33;;;;;;;6.30;1.30;;;;;;;30.05;34.37;100225.75;1714618;83;21312;-82
2021/07/14 07:59:39;;;;;;;5.72;1.22;;;;;;;30.04;32.46;100219.02;1745780;82;21286;-81
2021/07/14 08:02:45;;;;;;;2.80;1.10;;;;;;;29.99;31.65;100224.75;1756223;80;21315;-81
2021/07/14 08:05:50;;;;;;;4.30;1.52;;;;;;;29.95;31.52;100216.64;1732553;81;21312;-81
2021/07/14 08:08:56;;;;;;;7.35;1.50;;;;;;;29.99;32.25;100214.88;1753574;80;21301;-81
2021/07/14 08:12:02;;;;;;;5.05;1.22;;;;;;;30.03;31.67;100223.00;1758903;80;21337;-81
2021/07/14 08:15:08;;;;;;;5.22;1.20;;;;;;;30.07;32.02;100226.87;1751696;82;21254;-81
2021/07/14 08:18:16;;;;;;;7.20;1.50;;;;;;;30.08;31.11;100213.03;1736751;81;21201;-81
2021/07/14 08:21:23;;;;;;;6.47;1.60;;;;;;;30.15;32.04;100205.61;1717491;82;21727;-80
2021/07/14 08:24:29;;;;;;;7.35;1.30;;;;;;;30.22;32.14;100212.53;1725447;83;21333;-81
2021/07/14 08:27:35;;;;;;;3.92;1.60;;;;;;;30.29;30.84;100208.72;1749844;80;21186;-80
2021/07/14 08:30:40;;;;;;;3.50;1.20;;;;;;;30.35;30.52;100210.03;1756601;81;21191;-81
2021/07/14 08:33:48;;;;;;;4.92;1.32;;;;;;;30.33;31.36;100202.47;1740820;81;21834;-81
2021/07/14 08:36:53;;;;;;;3.67;1.17;;;;;;;30.30;31.01;100208.14;1727973;83;21284;-81
2021/07/14 08:40:00;;;;;;;2.47;1.05;;;;;;;30.32;32.75;100203.63;1737817;82;21884;-80
2021/07/14 08:43:06;;;;;;;5.17;1.20;;;;;;;30.42;33.81;100210.48;1763146;80;21316;-81
2021/07/14 08:46:14;;;;;;;1.87;0.80;;;;;;;30.42;29.42;100211.31;1756654;80;21261;-81
2021/07/14 08:49:28;;;;;;;3.33;1.27;;;;;;;30.36;31.25;100201.86;1761876;80;21230;-81
2021/07/14 08:52:49;;;;;;;3.22;1.00;;;;;;;30.37;29.19;100200.70;1847672;76;22179;-81
2021/07/14 08:55:56;;;;;;;4.92;1.00;;;;;;;30.31;28.84;100204.20;1824786;77;21752;-81
2021/07/14 08:59:00;;;;;;;5.42;1.20;;;;;;;30.29;31.94;100200.25;1820004;77;21208;-81
2021/07/14 09:02:06;;;;;;;7.65;1.22;;;;;;;30.27;30.15;100208.78;1818500;77;21314;-81
2021/07/14 09:05:12;;;;;;;3.35;1.10;;;;;;;30.22;28.33;100194.20;1824819;77;21798;-81
2021/07/14 09:08:18;;;;;;;6.00;0.98;;;;;;;30.22;30.89;100197.02;1820543;77;21260;-81
2021/07/14 09:11:24;;;;;;;2.35;0.90;;;;;;;30.22;30.08;100199.00;1815339;77;21184;-80
2021/07/14 09:14:41;;;;;;;10.68;1.45;;;;;;;30.26;29.10;100198.08;1815076;77;21493;-80
2021/07/14 09:17:58;;;;;;;4.85;1.05;;;;;;;30.33;31.37;100195.41;1814114;79;21170;-80
2021/07/14 09:21:04;;;;;;;5.33;1.10;;;;;;;30.41;30.98;100194.70;1816813;77;21219;-79
2021/07/14 09:24:15;;;;;;;7.03;1.50;;;;;;;30.38;32.58;100187.69;1819654;77;21298;-80
2021/07/14 09:27:35;;;;;;;;;;;;;;;30.37;30.53;100180.38;1809804;77;21818;-80
2021/07/14 09:30:36;;;;;;;2.55;1.30;;;;;;;30.34;31.42;100175.92;1832251;77;20297;-81
2021/07/14 09:33:41;;;;;;;3.20;1.17;;;;;;;30.29;34.09;100183.33;1821674;77;21294;-80
2021/07/14 09:36:55;;;;;;;7.08;1.20;;;;;;;30.35;33.38;100174.77;1820117;77;21255;-80
2021/07/14 09:40:01;;;;;;;10.85;1.02;;;;;;;30.35;30.42;100181.81;1803112;77;21849;-80
2021/07/14 09:43:20;;;;;;;4.17;1.17;;;;;;;30.33;31.98;100175.09;1792659;79;21148;-80
2021/07/14 09:46:28;;;;;;;4.05;1.20;;;;;;;30.32;31.50;100174.00;1810523;79;21215;-80
2021/07/14 09:49:33;;;;;;;6.10;1.40;;;;;;;30.27;31.70;100168.71;1792074;79;21216;-80
2021/07/14 09:52:38;;;;;;;4.65;1.00;;;;;;;30.29;30.73;100171.21;1723177;81;21268;-84
2021/07/14 09:55:43;;;;;;;7.62;1.20;;;;;;;30.30;31.41;100174.28;1755110;81;21834;-80
2021/07/14 09:58:49;;;;;;;6.22;1.37;;;;;;;30.32;32.04;100176.82;1750635;81;21236;-80
2021/07/14 10:01:56;;;;;;;4.03;1.10;;;;;;;30.36;32.18;100175.05;1748984;81;21208;-80
2021/07/14 10:05:06;;;;;;;3.80;0.98;;;;;;;30.42;31.93;100181.69;1745402;82;21323;-80
2021/07/14 10:08:27;;;;;;;4.87;1.10;;;;;;;30.44;32.51;100181.36;1753435;82;21284;-80
2021/07/14 10:11:34;;;;;;;3.27;1.10;;;;;;;30.44;29.84;100185.05;1743499;79;21174;-80
2021/07/14 10:14:40;;;;;;;8.25;1.10;;;;;;;30.40;30.35;100193.04;1732663;82;21271;-80
2021/07/14 10:17:49;;;;;;;4.83;1.32;;;;;;;30.37;29.95;100188.01;1692294;85;21326;-80
2021/07/14 10:20:53;;;;;;;6.60;1.10;;;;;;;30.34;29.77;100186.63;1732115;82;21819;-80
2021/07/14 10:24:00;;;;;;;2.15;1.10;;;;;;;30.34;30.26;100190.03;1744774;82;21355;-80
2021/07/14 10:27:06;;;;;;;4.00;0.85;;;;;;;30.37;31.17;100182.36;1742442;82;21154;-80
2021/07/14 10:30:12;;;;;;;3.83;1.50;;;;;;;30.43;32.37;100187.58;1693408;85;21402;-80
2021/07/14 10:33:20;;;;;;;6.17;1.10;;;;;;;30.48;30.32;100189.47;1723304;82;21830;-80
2021/07/14 10:36:28;;;;;;;11.88;1.30;;;;;;;30.55;30.50;100192.73;1714822;82;21350;-79
2021/07/14 10:39:34;;;;;;;4.22;1.17;;;;;;;30.52;30.42;100194.18;1722525;82;21365;-80
2021/07/14 10:42:39;;;;;;;8.20;1.40;;;;;;;30.49;29.29;100182.13;1692678;85;21730;-80
2021/07/14 10:45:47;;;;;;;4.65;1.10;;;;;;;30.52;31.42;100189.11;1731294;82;21281;-80
2021/07/14 10:48:53;;;;;;;7.65;1.40;;;;;;;30.55;29.47;100191.32;1732702;82;21795;-80
2021/07/14 10:51:59;;;;;;;2.22;1.25;;;;;;;30.55;31.33;100185.67;1732693;82;21217;-80
2021/07/14 10:55:04;;;;;;;3.67;1.20;;;;;;;30.62;33.23;100188.07;1744452;82;21286;-80
2021/07/14 10:58:10;;;;;;;9.05;1.10;;;;;;;30.64;29.80;100187.20;1786038;79;21221;-80
2021/07/14 11:01:17;;;;;;;4.85;1.20;;;;;;;30.67;30.47;100187.39;1773639;79;21314;-80
2021/07/14 11:04:38;;;;;;;1.67;1.10;;;;;;;30.69;30.09;100187.09;1794457;79;21373;-81
2021/07/14 11:07:45;;;;;;;5.15;1.37;;;;;;;30.64;31.35;100190.86;1781532;80;21821;-80
2021/07/14 11:10:50;;;;;;;2.17;1.30;;;;;;;30.61;31.23;100187.81;1788049;79;21212;-81
2021/07/14 11:13:57;;;;;;;12.95;1.25;;;;;;;30.61;31.85;100181.59;1799856;79;21294;-81
2021/07/14 11:17:06;;;;;;;3.65;1.20;;;;;;;30.64;30.38;100178.73;1787330;79;21275;-80
2021/07/14 11:20:19;;;;;;;4.40;1.10;;;;;;;30.64;30.83;100178.16;1786593;79;21200;-81
2021/07/14 11:23:29;;;;;;;9.00;1.00;;;;;;;30.64;31.59;100181.55;1797276;79;21200;-80
2021/07/14 11:26:34;;;;;;;4.03;1.07;;;;;;;30.64;30.95;100178.73;1789507;79;21347;-80
2021/07/14 11:29:45;;;;;;;6.12;1.00;;;;;;;30.63;31.06;100170.84;1787441;79;21731;-80
2021/07/14 11:32:57;;;;;;;7.08;1.40;;;;;;;30.66;33.16;100180.08;1795781;79;21279;-80
2021/07/14 11:36:17;;;;;;;3.83;1.30;;;;;;;30.68;32.37;100172.15;1791393;79;21306;-81
2021/07/14 11:39:35;;;;;;;2.05;1.27;;;;;;;30.70;31.88;100180.30;1782085;80;21300;-80
2021/07/14 11:42:41;;;;;;;5.42;1.10;;;;;;;30.66;31.37;100172.19;1793038;79;21232;-81
2021/07/14 11:45:48;;;;;;;1.65;0.90;;;;;;;30.64;31.71;100171.09;1781886;80;21275;-80
2021/07/14 11:48:54;;;;;;;6.83;1.12;;;;;;;30.67;31.08;100164.80;1781630;80;21314;-80
2021/07/14 11:51:59;;;;;;;3.52;1.10;;;;;;;30.71;30.45;100170.12;1799475;79;21830;-80
2021/07/14 11:55:43;;;;;;;3.22;1.07;;;;;;;30.74;32.11;100168.09;1785105;79;21878;-81
2021/07/14 11:59:16;;;;;;;10.95;1.92;;;;;;;30.70;31.21;100176.89;1779362;80;21830;-80
2021/07/14 12:02:26;;;;;;;4.45;1.00;;;;;;;30.62;31.95;100172.55;1798435;79;21834;-81
2021/07/14 12:05:37;;;;;;;7.12;1.17;;;;;;;30.63;31.96;100162.37;1794573;79;21735;-81
2021/07/14 12:08:46;;;;;;;6.72;1.20;;;;;;;30.66;31.66;100159.48;1810259;79;21248;-80
2021/07/14 12:11:59;;;;;;;6.25;1.37;;;;;;;30.64;31.82;100161.22;1811167;79;21287;-80
2021/07/14 12:15:07;;;;;;;2.77;1.00;;;;;;;30.62;32.04;100167.73;1809468;79;21164;-80
2021/07/14 12:18:15;;;;;;;3.45;1.20;;;;;;;30.61;31.84;100146.31;1781079;79;21794;-81
2021/07/14 12:21:22;;;;;;;2.77;1.10;;;;;;;30.64;32.00;100156.98;1774697;80;21213;-81
2021/07/14 12:24:37;;;;;;;4.58;1.65;;;;;;;30.62;31.33;100157.02;1737027;80;21346;-81
2021/07/14 12:27:45;;;;;;;6.45;1.70;;;;;;;30.62;31.13;100157.86;1773334;79;21164;-81
2021/07/14 12:30:51;;;;;;;11.57;1.40;;;;;;;30.62;31.17;100155.03;1777414;80;21200;-82
2021/07/14 12:34:02;;;;;;;2.85;1.10;;;;;;;30.60;31.19;100149.46;1792317;79;21873;-81
2021/07/14 12:37:08;;;;;;;3.33;1.52;;;;;;;30.61;33.26;100151.95;1811199;79;21291;-81
2021/07/14 12:40:16;;;;;;;5.28;1.25;;;;;;;30.59;30.65;100150.04;1809820;79;21248;-81
2021/07/14 12:43:28;;;;;;;3.47;1.02;;;;;;;30.54;30.78;100155.21;1811342;79;21279;-81
2021/07/14 12:46:33;;;;;;;6.78;1.05;;;;;;;30.52;31.81;100151.02;1809923;79;21185;-81
2021/07/14 12:49:42;;;;;;;3.83;1.27;;;;;;;30.53;31.92;100155.50;1808277;79;21187;-80
2021/07/14 12:52:59;;;;;;;5.65;1.32;;;;;;;30.53;31.06;100152.68;1794523;79;21160;-81
2021/07/14 12:56:05;;;;;;;4.90;1.30;;;;;;;30.57;31.47;100147.25;1779308;79;21281;-81
2021/07/14 12:59:11;;;;;;;7.67;1.10;;;;;;;30.57;33.24;100155.14;1781972;79;21216;-81
2021/07/14 13:02:18;;;;;;;3.27;1.10;;;;;;;30.53;31.41;100145.05;1781177;79;21343;-81
2021/07/14 13:05:27;;;;;;;6.28;1.07;;;;;;;30.51;31.66;100139.47;1777444;79;21176;-81
2021/07/14 13:08:36;;;;;;;7.75;1.50;;;;;;;30.46;32.11;100150.29;1802754;79;21878;-81
2021/07/14 13:11:41;;;;;;;6.67;0.98;;;;;;;30.44;32.38;100143.27;1803472;79;21458;-81
2021/07/14 13:14:48;;;;;;;1.85;0.85;;;;;;;30.43;32.02;100141.03;1772158;79;21169;-81
2021/07/14 13:17:53;;;;;;;4.10;1.00;;;;;;;30.39;31.97;100136.32;1753343;81;21295;-81
2021/07/14 13:21:00;;;;;;;5.65;1.32;;;;;;;30.37;33.42;100136.64;1770541;81;21720;-80
2021/07/14 13:24:14;;;;;;;4.30;0.93;;;;;;;30.33;32.15;100126.30;1770166;81;21195;-81
2021/07/14 13:27:20;;;;;;;9.35;1.42;;;;;;;30.32;33.84;100130.27;1769791;81;21173;-81
2021/07/14 13:30:39;;;;;;;8.35;1.37;;;;;;;30.28;32.74;100123.83;1753789;81;21827;-81
2021/07/14 13:33:53;;;;;;;1.80;1.10;;;;;;;30.29;32.60;100118.45;1770682;81;21307;-81
2021/07/14 13:37:01;;;;;;;1.70;1.10;;;;;;;30.29;33.50;100124.09;1771943;81;21363;-80
2021/07/14 13:40:30;;;;;;;6.28;1.17;;;;;;;30.27;32.65;100122.74;1770045;81;21312;-81
2021/07/14 13:43:58;;;;;;;7.17;1.15;;;;;;;30.23;31.59;100119.70;1769861;80;21303;-81
2021/07/14 13:47:06;;;;;;;5.03;0.90;;;;;;;30.20;33.31;100116.09;1761654;81;21197;-81
2021/07/14 13:50:17;;;;;;;6.45;0.98;;;;;;;30.20;34.59;100113.27;1755085;81;21311;-81
2021/07/14 13:53:23;;;;;;;3.87;1.40;;;;;;;30.19;34.61;100114.42;1771545;81;22387;-81
2021/07/14 13:56:35;;;;;;;3.20;1.30;;;;;;;30.18;35.01;100113.33;1768340;81;21367;-81
2021/07/14 13:59:51;;;;;;;4.65;1.35;;;;;;;30.14;33.82;100113.11;1769797;81;21299;-81
2021/07/14 14:03:03;;;;;;;7.10;0.93;;;;;;;30.14;33.82;100113.11;1769788;81;21196;-81
2021/07/14 14:06:15;;;;;;;12.58;1.27;;;;;;;30.11;32.39;100105.81;1769708;81;21810;-80
2021/07/14 14:09:27;;;;;;;6.33;1.10;;;;;;;30.10;32.89;100106.96;1771112;81;21208;-81
2021/07/14 14:12:47;;;;;;;1.52;0.95;;;;;;;30.10;34.02;100105.55;1769546;81;21217;-80
2021/07/14 14:15:52;;;;;;;2.40;1.10;;;;;;;30.10;33.13;100109.78;1771174;81;21327;-81
2021/07/14 14:18:58;;;;;;;7.78;1.22;;;;;;;30.08;33.34;100110.68;1771125;81;21930;-81
2021/07/14 14:22:05;;;;;;;7.37;1.32;;;;;;;30.05;32.86;100109.30;1771171;81;21185;-81
2021/07/14 14:25:13;;;;;;;6.80;1.30;;;;;;;30.02;32.43;100108.53;1771096;81;21225;-81
2021/07/14 14:28:21;;;;;;;3.25;1.20;;;;;;;29.99;32.55;100102.94;1771926;81;21304;-80
2021/07/14 14:31:26;;;;;;;5.95;1.80;;;;;;;29.98;32.23;100100.44;1771129;81;21181;-80
2021/07/14 14:34:31;;;;;;;3.10;1.10;;;;;;;29.96;32.58;100102.70;1769924;81;21291;-81
2021/07/14 14:37:36;;;;;;;1.30;1.07;;;;;;;29.94;33.46;100104.44;1769900;81;21297;-80
2021/07/14 14:40:45;;;;;;;7.80;1.10;;;;;;;29.93;32.27;100098.55;1769822;81;21304;-81